createdAt,value
2017-10-26T00:00:39.918Z,1017.67
2017-10-26T00:01:39.893Z,1017.63
2017-10-26T00:02:39.882Z,1017.64
2017-10-26T00:03:39.857Z,1017.61
2017-10-26T00:04:39.842Z,1017.65
2017-10-26T00:05:39.822Z,1017.64
2017-10-26T00:06:39.818Z,1017.65
2017-10-26T00:07:39.784Z,1017.65
2017-10-26T00:08:39.774Z,1017.66
2017-10-26T00:09:39.749Z,1017.66
2017-10-26T00:10:39.741Z,1017.64
2017-10-26T00:11:39.722Z,1017.63
2017-10-26T00:12:39.704Z,1017.63
2017-10-26T00:13:39.683Z,1017.57
2017-10-26T00:14:39.662Z,1017.55
2017-10-26T00:15:39.642Z,1017.54
2017-10-26T00:16:39.620Z,1017.55
2017-10-26T00:17:39.602Z,1017.58
2017-10-26T00:18:39.588Z,1017.56
2017-10-26T00:19:39.574Z,1017.52
2017-10-26T00:20:39.549Z,1017.48
2017-10-26T00:21:39.530Z,1017.51
2017-10-26T00:22:39.521Z,1017.51
2017-10-26T00:23:39.495Z,1017.52
2017-10-26T00:24:39.475Z,1017.54
2017-10-26T00:25:39.459Z,1017.53
2017-10-26T00:26:39.450Z,1017.56
2017-10-26T00:27:39.421Z,1017.63
2017-10-26T00:28:39.403Z,1017.67
2017-10-26T00:29:39.382Z,1017.72
2017-10-26T00:30:39.364Z,1017.68
2017-10-26T00:31:39.351Z,1017.63
2017-10-26T00:32:39.332Z,1017.65
2017-10-26T00:33:39.314Z,1017.6
2017-10-26T00:34:39.292Z,1017.61
2017-10-26T00:35:39.274Z,1017.6
2017-10-26T00:36:39.260Z,1017.66
2017-10-26T00:37:39.245Z,1017.68
2017-10-26T00:38:39.220Z,1017.72
2017-10-26T00:39:39.203Z,1017.7
2017-10-26T00:40:39.181Z,1017.7
2017-10-26T00:41:39.162Z,1017.73
2017-10-26T00:42:39.144Z,1017.68
2017-10-26T00:43:39.145Z,1017.7
2017-10-26T00:44:39.115Z,1017.65
2017-10-26T00:45:39.092Z,1017.65
2017-10-26T00:46:39.072Z,1017.58
2017-10-26T00:47:39.052Z,1017.58
2017-10-26T00:48:39.037Z,1017.64
2017-10-26T00:49:39.022Z,1017.65
2017-10-26T00:50:39.002Z,1017.59
2017-10-26T00:51:38.981Z,1017.6
2017-10-26T00:52:38.961Z,1017.66
2017-10-26T00:53:38.941Z,1017.66
2017-10-26T00:54:38.924Z,1017.66
2017-10-26T00:55:38.904Z,1017.66
2017-10-26T00:56:38.887Z,1017.67
2017-10-26T00:57:38.865Z,1017.64
2017-10-26T00:58:38.848Z,1017.64
2017-10-26T00:59:38.831Z,1017.65
2017-10-26T01:00:38.827Z,1017.63
2017-10-26T01:01:38.795Z,1017.63
2017-10-26T01:02:38.780Z,1017.61
2017-10-26T01:03:38.763Z,1017.59
2017-10-26T01:04:38.744Z,1017.63
2017-10-26T01:05:38.725Z,1017.66
2017-10-26T01:06:38.702Z,1017.59
2017-10-26T01:07:38.682Z,1017.56
2017-10-26T01:08:38.669Z,1017.59
2017-10-26T01:09:38.645Z,1017.57
2017-10-26T01:10:38.630Z,1017.53
2017-10-26T01:11:38.608Z,1017.5
2017-10-26T01:12:38.590Z,1017.54
2017-10-26T01:13:38.575Z,1017.59
2017-10-26T01:14:38.550Z,1017.57
2017-10-26T01:15:38.533Z,1017.6
2017-10-26T01:16:38.518Z,1017.61
2017-10-26T01:17:38.503Z,1017.61
2017-10-26T01:18:38.477Z,1017.6
2017-10-26T01:19:38.465Z,1017.61
2017-10-26T01:20:38.441Z,1017.58
2017-10-26T01:21:38.426Z,1017.62
2017-10-26T01:22:38.411Z,1017.61
2017-10-26T01:23:38.385Z,1017.63
2017-10-26T01:24:38.371Z,1017.6
2017-10-26T01:25:38.352Z,1017.53
2017-10-26T01:26:38.333Z,1017.51
2017-10-26T01:27:38.313Z,1017.48
2017-10-26T01:28:38.295Z,1017.51
2017-10-26T01:29:38.277Z,1017.51
2017-10-26T01:30:38.262Z,1017.47
2017-10-26T01:31:38.246Z,1017.55
2017-10-26T01:32:38.221Z,1017.55
2017-10-26T01:33:38.201Z,1017.52
2017-10-26T01:34:38.183Z,1017.55
2017-10-26T01:35:38.167Z,1017.55
2017-10-26T01:36:38.154Z,1017.57
2017-10-26T01:37:38.137Z,1017.54
2017-10-26T01:38:38.107Z,1017.55
2017-10-26T01:39:38.091Z,1017.58
2017-10-26T01:40:38.072Z,1017.57
2017-10-26T01:41:38.053Z,1017.56
2017-10-26T01:42:38.035Z,1017.52
2017-10-26T01:43:38.017Z,1017.55
2017-10-26T01:44:37.995Z,1017.53
2017-10-26T01:45:37.981Z,1017.54
2017-10-26T01:46:37.963Z,1017.58
2017-10-26T01:47:37.942Z,1017.58
2017-10-26T01:48:37.930Z,1017.63
2017-10-26T01:49:37.912Z,1017.62
2017-10-26T01:50:37.890Z,1017.61
2017-10-26T01:51:37.873Z,1017.61
2017-10-26T01:52:37.851Z,1017.65
2017-10-26T01:53:37.832Z,1017.62
2017-10-26T01:54:37.819Z,1017.6
2017-10-26T01:55:37.794Z,1017.58
2017-10-26T01:56:37.775Z,1017.53
2017-10-26T01:57:37.763Z,1017.5
2017-10-26T01:58:37.744Z,1017.44
2017-10-26T01:59:37.726Z,1017.39
2017-10-26T02:00:37.704Z,1017.36
2017-10-26T02:01:37.691Z,1017.33
2017-10-26T02:02:37.669Z,1017.27
2017-10-26T02:03:37.652Z,1017.23
2017-10-26T02:04:37.642Z,1017.23
2017-10-26T02:05:37.621Z,1017.25
2017-10-26T02:06:37.591Z,1017.27
2017-10-26T02:07:37.571Z,1017.35
2017-10-26T02:08:37.562Z,1017.4
2017-10-26T02:09:37.534Z,1017.45
2017-10-26T02:10:37.519Z,1017.49
2017-10-26T02:11:37.502Z,1017.51
2017-10-26T02:12:37.491Z,1017.46
2017-10-26T02:13:37.462Z,1017.48
2017-10-26T02:14:37.441Z,1017.47
2017-10-26T02:15:37.428Z,1017.47
2017-10-26T02:16:37.412Z,1017.49
2017-10-26T02:17:37.395Z,1017.53
2017-10-26T02:18:37.370Z,1017.56
2017-10-26T02:19:37.353Z,1017.62
2017-10-26T02:20:37.332Z,1017.61
2017-10-26T02:21:37.317Z,1017.6
2017-10-26T02:22:37.310Z,1017.6
2017-10-26T02:23:37.278Z,1017.59
2017-10-26T02:24:37.261Z,1017.49
2017-10-26T02:25:37.242Z,1017.47
2017-10-26T02:26:37.221Z,1017.45
2017-10-26T02:27:37.201Z,1017.45
2017-10-26T02:28:37.183Z,1017.42
2017-10-26T02:29:37.166Z,1017.41
2017-10-26T02:30:37.147Z,1017.39
2017-10-26T02:31:37.128Z,1017.37
2017-10-26T02:32:37.112Z,1017.3
2017-10-26T02:33:37.091Z,1017.32
2017-10-26T02:34:37.085Z,1017.27
2017-10-26T02:35:37.060Z,1017.29
2017-10-26T02:36:37.038Z,1017.28
2017-10-26T02:37:37.022Z,1017.22
2017-10-26T02:38:37.001Z,1017.24
2017-10-26T02:39:36.992Z,1017.25
2017-10-26T02:40:36.963Z,1017.26
2017-10-26T02:41:36.950Z,1017.24
2017-10-26T02:42:36.932Z,1017.27
2017-10-26T02:43:36.905Z,1017.24
2017-10-26T02:44:36.889Z,1017.24
2017-10-26T02:45:36.869Z,1017.21
2017-10-26T02:46:36.852Z,1017.19
2017-10-26T02:47:36.832Z,1017.24
2017-10-26T02:48:36.816Z,1017.24
2017-10-26T02:49:36.800Z,1017.25
2017-10-26T02:50:36.779Z,1017.3
2017-10-26T02:51:36.761Z,1017.27
2017-10-26T02:52:36.764Z,1017.27
2017-10-26T02:53:36.721Z,1017.24
2017-10-26T02:54:36.702Z,1017.22
2017-10-26T02:55:36.686Z,1017.21
2017-10-26T02:56:36.674Z,1017.19
2017-10-26T02:57:36.652Z,1017.19
2017-10-26T02:58:36.632Z,1017.17
2017-10-26T02:59:36.611Z,1017.2
2017-10-26T03:00:36.593Z,1017.19
2017-10-26T03:01:36.578Z,1017.21
2017-10-26T03:02:36.552Z,1017.2
2017-10-26T03:03:36.535Z,1017.2
2017-10-26T03:04:36.521Z,1017.19
2017-10-26T03:05:36.501Z,1017.2
2017-10-26T03:06:36.481Z,1017.18
2017-10-26T03:07:36.553Z,1017.18
2017-10-26T03:08:36.443Z,1017.16
2017-10-26T03:09:36.432Z,1017.13
2017-10-26T03:10:36.407Z,1017.11
2017-10-26T03:11:36.394Z,1017.09
2017-10-26T03:12:36.370Z,1017.1
2017-10-26T03:13:36.349Z,1017.11
2017-10-26T03:14:36.334Z,1017.15
2017-10-26T03:15:36.310Z,1017.11
2017-10-26T03:16:36.301Z,1017.16
2017-10-26T03:17:36.275Z,1017.19
2017-10-26T03:18:36.260Z,1017.14
2017-10-26T03:19:36.240Z,1017.16
2017-10-26T03:20:36.222Z,1017.23
2017-10-26T03:21:36.201Z,1017.33
2017-10-26T03:22:36.186Z,1017.36
2017-10-26T03:23:36.176Z,1017.37
2017-10-26T03:24:36.150Z,1017.31
2017-10-26T03:25:36.131Z,1017.27
2017-10-26T03:26:36.114Z,1017.26
2017-10-26T03:27:36.092Z,1017.32
2017-10-26T03:28:36.072Z,1017.32
2017-10-26T03:29:36.067Z,1017.34
2017-10-26T03:30:36.043Z,1017.34
2017-10-26T03:31:36.110Z,1017.34
2017-10-26T03:32:36.003Z,1017.34
2017-10-26T03:33:35.992Z,1017.38
2017-10-26T03:34:35.965Z,1017.37
2017-10-26T03:35:35.942Z,1017.37
2017-10-26T03:36:35.922Z,1017.36
2017-10-26T03:37:35.905Z,1017.37
2017-10-26T03:38:35.891Z,1017.37
2017-10-26T03:39:35.932Z,1017.4
2017-10-26T03:40:35.873Z,1017.37
2017-10-26T03:41:35.832Z,1017.33
2017-10-26T03:42:35.814Z,1017.35
2017-10-26T03:43:35.888Z,1017.37
2017-10-26T03:44:35.781Z,1017.47
2017-10-26T03:45:35.764Z,1017.51
2017-10-26T03:46:35.743Z,1017.52
2017-10-26T03:47:35.779Z,1017.47
2017-10-26T03:48:35.710Z,1017.45
2017-10-26T03:49:35.684Z,1017.44
2017-10-26T03:50:35.662Z,1017.48
2017-10-26T03:51:35.645Z,1017.48
2017-10-26T03:52:35.631Z,1017.44
2017-10-26T03:53:35.605Z,1017.37
2017-10-26T03:54:35.590Z,1017.33
2017-10-26T03:55:35.573Z,1017.35
2017-10-26T03:56:35.552Z,1017.3
2017-10-26T03:57:35.534Z,1017.3
2017-10-26T03:58:35.521Z,1017.28
2017-10-26T03:59:35.496Z,1017.34
2017-10-26T04:00:35.483Z,1017.35
2017-10-26T04:01:35.458Z,1017.35
2017-10-26T04:02:35.442Z,1017.34
2017-10-26T04:03:35.421Z,1017.33
2017-10-26T04:04:35.402Z,1017.35
2017-10-26T04:05:35.392Z,1017.3
2017-10-26T04:06:35.364Z,1017.29
2017-10-26T04:07:35.352Z,1017.25
2017-10-26T04:08:35.330Z,1017.23
2017-10-26T04:09:35.309Z,1017.29
2017-10-26T04:10:35.288Z,1017.28
2017-10-26T04:11:35.272Z,1017.22
2017-10-26T04:12:35.261Z,1017.23
2017-10-26T04:13:35.240Z,1017.25
2017-10-26T04:14:35.214Z,1017.27
2017-10-26T04:15:35.198Z,1017.3
2017-10-26T04:16:35.185Z,1017.3
2017-10-26T04:17:35.168Z,1017.34
2017-10-26T04:18:35.141Z,1017.32
2017-10-26T04:19:35.131Z,1017.33
2017-10-26T04:20:35.105Z,1017.26
2017-10-26T04:21:35.090Z,1017.22
2017-10-26T04:22:35.066Z,1017.17
2017-10-26T04:23:35.049Z,1017.17
2017-10-26T04:24:35.031Z,1017.16
2017-10-26T04:25:35.012Z,1017.2
2017-10-26T04:26:34.996Z,1017.23
2017-10-26T04:27:34.979Z,1017.23
2017-10-26T04:28:34.953Z,1017.23
2017-10-26T04:29:34.943Z,1017.19
2017-10-26T04:30:34.922Z,1017.17
2017-10-26T04:31:34.903Z,1017.12
2017-10-26T04:32:34.880Z,1017.15
2017-10-26T04:33:34.863Z,1017.19
2017-10-26T04:34:34.844Z,1017.14
2017-10-26T04:35:34.829Z,1017.13
2017-10-26T04:36:34.811Z,1017.14
2017-10-26T04:37:34.793Z,1017.11
2017-10-26T04:38:34.781Z,1017.1
2017-10-26T04:39:34.752Z,1017.1
2017-10-26T04:40:34.730Z,1017.12
2017-10-26T04:41:34.977Z,1017.15
2017-10-26T04:42:34.692Z,1017.13
2017-10-26T04:43:34.684Z,1017.12
2017-10-26T04:44:34.655Z,1017.14
2017-10-26T04:45:34.640Z,1017.12
2017-10-26T04:46:34.621Z,1017.12
2017-10-26T04:47:34.605Z,1017.09
2017-10-26T04:48:34.583Z,1017.13
2017-10-26T04:49:34.568Z,1017.14
2017-10-26T04:50:34.541Z,1017.14
2017-10-26T04:51:34.576Z,1017.16
2017-10-26T04:52:34.507Z,1017.15
2017-10-26T04:53:34.572Z,1017.15
2017-10-26T04:54:34.474Z,1017.14
2017-10-26T04:55:34.497Z,1017.13
2017-10-26T04:56:34.430Z,1017.14
2017-10-26T04:57:34.490Z,1017.19
2017-10-26T04:58:34.401Z,1017.19
2017-10-26T04:59:34.432Z,1017.14
2017-10-26T05:00:34.358Z,1017.14
2017-10-26T05:01:34.436Z,1017.15
2017-10-26T05:02:34.321Z,1017.17
2017-10-26T05:03:34.301Z,1017.1
2017-10-26T05:04:34.280Z,1017.13
2017-10-26T05:05:34.270Z,1017.12
2017-10-26T05:06:34.243Z,1017.2
2017-10-26T05:07:34.277Z,1017.17
2017-10-26T05:08:34.209Z,1017.19
2017-10-26T05:09:34.194Z,1017.13
2017-10-26T05:10:34.172Z,1017.13
2017-10-26T05:11:34.251Z,1017.09
2017-10-26T05:12:34.133Z,1017.05
2017-10-26T05:13:34.222Z,1017.08
2017-10-26T05:14:34.102Z,1017.05
2017-10-26T05:15:34.125Z,1017.06
2017-10-26T05:16:34.062Z,1017.04
2017-10-26T05:17:34.069Z,1017.1
2017-10-26T05:18:34.032Z,1017.1
2017-10-26T05:19:34.101Z,1017.1
2017-10-26T05:20:33.981Z,1017.16
2017-10-26T05:21:34.063Z,1017.15
2017-10-26T05:22:33.946Z,1017.2
2017-10-26T05:23:33.982Z,1017.21
2017-10-26T05:24:33.909Z,1017.19
2017-10-26T05:25:33.898Z,1017.15
2017-10-26T05:26:33.874Z,1017.16
2017-10-26T05:27:33.859Z,1017.17
2017-10-26T05:28:33.830Z,1017.18
2017-10-26T05:29:33.824Z,1017.17
2017-10-26T05:30:33.797Z,1017.16
2017-10-26T05:31:33.830Z,1017.14
2017-10-26T05:32:33.763Z,1017.11
2017-10-26T05:33:33.742Z,1017.12
2017-10-26T05:34:33.722Z,1017.09
2017-10-26T05:35:33.713Z,1017.09
2017-10-26T05:36:33.686Z,1017.02
2017-10-26T05:37:33.672Z,1016.98
2017-10-26T05:38:33.647Z,1016.95
2017-10-26T05:39:33.634Z,1016.91
2017-10-26T05:40:33.613Z,1016.93
2017-10-26T05:41:33.593Z,1016.9
2017-10-26T05:42:33.585Z,1016.87
2017-10-26T05:43:33.559Z,1016.86
2017-10-26T05:44:33.537Z,1016.87
2017-10-26T05:45:33.521Z,1016.87
2017-10-26T05:46:33.499Z,1016.85
2017-10-26T05:47:33.482Z,1016.86
2017-10-26T05:48:33.473Z,1016.88
2017-10-26T05:49:33.446Z,1016.86
2017-10-26T05:50:33.433Z,1016.86
2017-10-26T05:51:33.404Z,1016.87
2017-10-26T05:52:33.385Z,1016.88
2017-10-26T05:53:33.369Z,1016.87
2017-10-26T05:54:33.348Z,1016.88
2017-10-26T05:55:33.333Z,1016.91
2017-10-26T05:56:33.316Z,1016.91
2017-10-26T05:57:33.291Z,1016.93
2017-10-26T05:58:33.276Z,1016.93
2017-10-26T05:59:33.261Z,1016.94
2017-10-26T06:00:33.239Z,1016.93
2017-10-26T06:01:33.218Z,1016.89
2017-10-26T06:02:33.199Z,1016.91
2017-10-26T06:03:33.182Z,1016.89
2017-10-26T06:04:33.178Z,1016.86
2017-10-26T06:05:33.143Z,1016.86
2017-10-26T06:06:33.130Z,1016.77
2017-10-26T06:07:33.106Z,1016.8
2017-10-26T06:08:33.087Z,1016.73
2017-10-26T06:09:33.073Z,1016.78
2017-10-26T06:10:33.058Z,1016.79
2017-10-26T06:11:33.034Z,1016.83
2017-10-26T06:12:33.012Z,1016.85
2017-10-26T06:13:32.995Z,1016.9
2017-10-26T06:14:32.971Z,1016.89
2017-10-26T06:15:32.963Z,1016.84
2017-10-26T06:16:32.936Z,1016.88
2017-10-26T06:17:32.925Z,1016.87
2017-10-26T06:18:32.900Z,1016.9
2017-10-26T06:19:32.886Z,1016.91
2017-10-26T06:20:32.866Z,1016.91
2017-10-26T06:21:32.892Z,1016.96
2017-10-26T06:22:32.832Z,1016.93
2017-10-26T06:23:32.861Z,1016.93
2017-10-26T06:24:32.789Z,1016.89
2017-10-26T06:25:32.771Z,1016.91
2017-10-26T06:26:32.748Z,1016.92
2017-10-26T06:27:32.732Z,1016.93
2017-10-26T06:28:32.714Z,1016.97
2017-10-26T06:29:32.704Z,1017.02
2017-10-26T06:30:32.675Z,1017.04
2017-10-26T06:31:32.707Z,1017.04
2017-10-26T06:32:32.642Z,1017.08
2017-10-26T06:33:32.632Z,1017.06
2017-10-26T06:34:32.602Z,1017.03
2017-10-26T06:35:32.579Z,1017.06
2017-10-26T06:36:32.564Z,1017.08
2017-10-26T06:37:32.541Z,1017.09
2017-10-26T06:38:32.533Z,1017.08
2017-10-26T06:39:32.510Z,1017.05
2017-10-26T06:40:32.487Z,1017.05
2017-10-26T06:41:32.768Z,1017.05
2017-10-26T06:42:32.455Z,1017.02
2017-10-26T06:43:32.483Z,1016.97
2017-10-26T06:44:32.417Z,1017.01
2017-10-26T06:45:32.396Z,1017.05
2017-10-26T06:46:32.393Z,1017.16
2017-10-26T06:47:32.367Z,1017.14
2017-10-26T06:48:32.344Z,1017.18
2017-10-26T06:49:32.330Z,1017.27
2017-10-26T06:50:32.302Z,1017.29
2017-10-26T06:51:32.281Z,1017.29
2017-10-26T06:52:32.263Z,1017.33
2017-10-26T06:53:32.254Z,1017.36
2017-10-26T06:54:32.231Z,1017.43
2017-10-26T06:55:32.214Z,1017.47
2017-10-26T06:56:32.194Z,1017.51
2017-10-26T06:57:32.173Z,1017.59
2017-10-26T06:58:32.154Z,1017.58
2017-10-26T06:59:32.136Z,1017.6
2017-10-26T07:00:32.132Z,1017.48
2017-10-26T07:01:32.148Z,1017.44
2017-10-26T07:02:32.092Z,1017.47
2017-10-26T07:03:32.061Z,1017.49
2017-10-26T07:04:32.052Z,1017.55
2017-10-26T07:05:32.031Z,1017.58
2017-10-26T07:06:32.005Z,1017.54
2017-10-26T07:07:31.986Z,1017.56
2017-10-26T07:08:31.971Z,1017.54
2017-10-26T07:09:31.950Z,1017.54
2017-10-26T07:10:31.932Z,1017.54
2017-10-26T07:11:31.916Z,1017.5
2017-10-26T07:12:31.900Z,1017.55
2017-10-26T07:13:31.881Z,1017.59
2017-10-26T07:14:31.861Z,1017.61
2017-10-26T07:15:31.845Z,1017.63
2017-10-26T07:16:31.824Z,1017.6
2017-10-26T07:17:31.802Z,1017.63
2017-10-26T07:18:31.780Z,1017.56
2017-10-26T07:19:31.767Z,1017.53
2017-10-26T07:20:31.746Z,1017.51
2017-10-26T07:21:31.737Z,1017.53
2017-10-26T07:22:31.711Z,1017.53
2017-10-26T07:23:31.691Z,1017.52
2017-10-26T07:24:31.672Z,1017.48
2017-10-26T07:25:31.663Z,1017.45
2017-10-26T07:26:31.642Z,1017.46
2017-10-26T07:27:31.632Z,1017.4
2017-10-26T07:28:31.614Z,1017.36
2017-10-26T07:29:31.582Z,1017.33
2017-10-26T07:30:31.575Z,1017.39
2017-10-26T07:31:31.551Z,1017.38
2017-10-26T07:32:31.531Z,1017.36
2017-10-26T07:33:31.508Z,1017.42
2017-10-26T07:34:31.488Z,1017.42
2017-10-26T07:35:31.480Z,1017.35
2017-10-26T07:36:31.465Z,1017.33
2017-10-26T07:37:31.448Z,1017.33
2017-10-26T07:38:31.426Z,1017.32
2017-10-26T07:39:31.402Z,1017.3
2017-10-26T07:40:31.384Z,1017.27
2017-10-26T07:41:31.386Z,1017.27
2017-10-26T07:42:31.348Z,1017.21
2017-10-26T07:43:31.340Z,1017.21
2017-10-26T07:44:31.314Z,1017.17
2017-10-26T07:45:31.294Z,1017.16
2017-10-26T07:46:31.273Z,1017.16
2017-10-26T07:47:31.261Z,1017.19
2017-10-26T07:48:31.254Z,1017.22
2017-10-26T07:49:31.223Z,1017.25
2017-10-26T07:50:31.202Z,1017.22
2017-10-26T07:51:31.188Z,1017.23
2017-10-26T07:52:31.169Z,1017.24
2017-10-26T07:53:31.165Z,1017.25
2017-10-26T07:54:31.132Z,1017.24
2017-10-26T07:55:31.119Z,1017.32
2017-10-26T07:56:31.094Z,1017.25
2017-10-26T07:57:31.074Z,1017.24
2017-10-26T07:58:31.062Z,1017.29
2017-10-26T07:59:31.045Z,1017.27
2017-10-26T08:00:31.020Z,1017.3
2017-10-26T08:01:31.004Z,1017.3
2017-10-26T08:02:30.982Z,1017.26
2017-10-26T08:03:30.966Z,1017.28
2017-10-26T08:04:30.946Z,1017.31
2017-10-26T08:05:30.941Z,1017.3
2017-10-26T08:06:30.912Z,1017.28
2017-10-26T08:07:30.891Z,1017.29
2017-10-26T08:08:30.871Z,1017.25
2017-10-26T08:09:30.868Z,1017.27
2017-10-26T08:10:30.841Z,1017.36
2017-10-26T08:11:30.820Z,1017.4
2017-10-26T08:12:30.811Z,1017.39
2017-10-26T08:13:30.781Z,1017.4
2017-10-26T08:14:30.771Z,1017.37
2017-10-26T08:15:30.750Z,1017.38
2017-10-26T08:16:30.728Z,1017.39
2017-10-26T08:17:30.715Z,1017.47
2017-10-26T08:18:30.692Z,1017.37
2017-10-26T08:19:30.675Z,1017.31
2017-10-26T08:20:30.657Z,1017.33
2017-10-26T08:21:30.642Z,1017.28
2017-10-26T08:22:30.621Z,1017.23
2017-10-26T08:23:30.606Z,1017.27
2017-10-26T08:24:30.590Z,1017.26
2017-10-26T08:25:30.566Z,1017.28
2017-10-26T08:26:30.551Z,1017.28
2017-10-26T08:27:30.539Z,1017.25
2017-10-26T08:28:30.512Z,1017.24
2017-10-26T08:29:30.499Z,1017.25
2017-10-26T08:30:30.476Z,1017.19
2017-10-26T08:31:30.460Z,1017.15
2017-10-26T08:32:30.443Z,1017.11
2017-10-26T08:33:30.421Z,1017.13
2017-10-26T08:34:30.409Z,1017.12
2017-10-26T08:35:30.392Z,1017.12
2017-10-26T08:36:30.370Z,1017.1
2017-10-26T08:37:30.349Z,1017.12
2017-10-26T08:38:30.342Z,1017.11
2017-10-26T08:39:30.321Z,1017.13
2017-10-26T08:40:30.300Z,1017.11
2017-10-26T08:41:30.279Z,1017.1
2017-10-26T08:42:30.262Z,1017.15
2017-10-26T08:43:30.250Z,1017.15
2017-10-26T08:44:30.229Z,1017.12
2017-10-26T08:45:30.210Z,1017.14
2017-10-26T08:46:30.191Z,1017.17
2017-10-26T08:47:30.173Z,1017.21
2017-10-26T08:48:30.159Z,1017.18
2017-10-26T08:49:30.141Z,1017.22
2017-10-26T08:50:30.118Z,1017.2
2017-10-26T08:51:30.101Z,1017.2
2017-10-26T08:52:30.097Z,1017.12
2017-10-26T08:53:30.072Z,1017.14
2017-10-26T08:54:30.065Z,1017.1
2017-10-26T08:55:30.032Z,1017.06
2017-10-26T08:56:30.013Z,1017.1
2017-10-26T08:57:30.005Z,1017.04
2017-10-26T08:58:29.984Z,1017.09
2017-10-26T08:59:29.962Z,1017.04
2017-10-26T09:00:29.942Z,1017.02
2017-10-26T09:01:29.929Z,1017.09
2017-10-26T09:02:29.910Z,1017.05
2017-10-26T09:03:29.886Z,1017.1
2017-10-26T09:04:29.872Z,1017.1
2017-10-26T09:05:29.854Z,1017.16
2017-10-26T09:06:29.842Z,1017.22
2017-10-26T09:07:29.835Z,1017.19
2017-10-26T09:08:29.804Z,1017.19
2017-10-26T09:09:29.780Z,1017.25
2017-10-26T09:10:29.761Z,1017.26
2017-10-26T09:11:29.751Z,1017.25
2017-10-26T09:12:29.732Z,1017.19
2017-10-26T09:13:29.712Z,1017.23
2017-10-26T09:14:29.704Z,1017.25
2017-10-26T09:15:29.674Z,1017.27
2017-10-26T09:16:29.659Z,1017.27
2017-10-26T09:17:29.637Z,1017.26
2017-10-26T09:18:29.621Z,1017.32
2017-10-26T09:19:29.601Z,1017.3
2017-10-26T09:20:29.597Z,1017.3
2017-10-26T09:21:29.568Z,1017.31
2017-10-26T09:22:29.550Z,1017.25
2017-10-26T09:23:29.533Z,1017.28
2017-10-26T09:24:29.511Z,1017.31
2017-10-26T09:25:29.498Z,1017.29
2017-10-26T09:26:29.482Z,1017.35
2017-10-26T09:27:29.462Z,1017.24
2017-10-26T09:28:29.442Z,1017.24
2017-10-26T09:29:29.423Z,1017.21
2017-10-26T09:30:29.407Z,1017.23
2017-10-26T09:31:29.390Z,1017.16
2017-10-26T09:32:29.373Z,1017.17
2017-10-26T09:33:29.355Z,1017.16
2017-10-26T09:34:29.333Z,1017.16
2017-10-26T09:35:29.315Z,1017.16
2017-10-26T09:36:29.301Z,1017.14
2017-10-26T09:37:29.283Z,1017.17
2017-10-26T09:38:29.272Z,1017.21
2017-10-26T09:39:29.250Z,1017.2
2017-10-26T09:40:29.230Z,1017.19
2017-10-26T09:41:29.216Z,1017.22
2017-10-26T09:42:29.191Z,1017.24
2017-10-26T09:43:29.182Z,1017.25
2017-10-26T09:44:29.154Z,1017.25
2017-10-26T09:45:29.142Z,1017.31
2017-10-26T09:46:29.118Z,1017.32
2017-10-26T09:47:29.101Z,1017.29
2017-10-26T09:48:29.093Z,1017.28
2017-10-26T09:49:29.072Z,1017.3
2017-10-26T09:50:29.055Z,1017.27
2017-10-26T09:51:29.032Z,1017.28
2017-10-26T09:52:29.021Z,1017.26
2017-10-26T09:53:28.998Z,1017.33
2017-10-26T09:54:28.981Z,1017.3
2017-10-26T09:55:28.961Z,1017.27
2017-10-26T09:56:28.955Z,1017.28
2017-10-26T09:57:28.929Z,1017.27
2017-10-26T09:58:28.915Z,1017.33
2017-10-26T09:59:28.898Z,1017.29
2017-10-26T10:00:28.887Z,1017.28
2017-10-26T10:01:28.863Z,1017.26
2017-10-26T10:02:28.845Z,1017.24
2017-10-26T10:03:28.831Z,1017.25
2017-10-26T10:04:28.816Z,1017.24
2017-10-26T10:05:28.793Z,1017.29
2017-10-26T10:06:28.784Z,1017.3
2017-10-26T10:07:28.773Z,1017.3
2017-10-26T10:08:28.744Z,1017.26
2017-10-26T10:09:28.727Z,1017.32
2017-10-26T10:10:28.715Z,1017.36
2017-10-26T10:11:28.693Z,1017.38
2017-10-26T10:12:28.684Z,1017.4
2017-10-26T10:13:28.671Z,1017.4
2017-10-26T10:14:28.645Z,1017.42
2017-10-26T10:15:28.622Z,1017.38
2017-10-26T10:16:28.614Z,1017.36
2017-10-26T10:17:28.589Z,1017.38
2017-10-26T10:18:28.572Z,1017.41
2017-10-26T10:19:28.562Z,1017.36
2017-10-26T10:20:28.541Z,1017.38
2017-10-26T10:21:28.524Z,1017.39
2017-10-26T10:22:28.506Z,1017.36
2017-10-26T10:23:28.492Z,1017.34
2017-10-26T10:24:28.473Z,1017.29
2017-10-26T10:25:28.464Z,1017.32
2017-10-26T10:26:28.444Z,1017.39
2017-10-26T10:27:28.425Z,1017.35
2017-10-26T10:28:28.405Z,1017.41
2017-10-26T10:29:28.400Z,1017.45
2017-10-26T10:30:28.374Z,1017.5
2017-10-26T10:31:28.365Z,1017.48
2017-10-26T10:32:28.347Z,1017.46
2017-10-26T10:33:28.330Z,1017.46
2017-10-26T10:34:28.315Z,1017.45
2017-10-26T10:35:28.295Z,1017.46
2017-10-26T10:36:28.406Z,1017.38
2017-10-26T10:37:28.266Z,1017.37
2017-10-26T10:38:28.253Z,1017.32
2017-10-26T10:39:28.229Z,1017.32
2017-10-26T10:40:28.316Z,1017.32
2017-10-26T10:41:28.201Z,1017.36
2017-10-26T10:42:28.203Z,1017.34
2017-10-26T10:43:28.166Z,1017.35
2017-10-26T10:44:28.147Z,1017.36
2017-10-26T10:45:28.131Z,1017.29
2017-10-26T10:46:28.118Z,1017.27
2017-10-26T10:47:28.104Z,1017.29
2017-10-26T10:48:28.092Z,1017.25
2017-10-26T10:49:28.077Z,1017.19
2017-10-26T10:50:28.058Z,1017.2
2017-10-26T10:51:28.046Z,1017.19
2017-10-26T10:52:28.033Z,1017.2
2017-10-26T10:53:28.010Z,1017.19
2017-10-26T10:54:27.999Z,1017.19
2017-10-26T10:55:27.984Z,1017.14
2017-10-26T10:56:27.971Z,1017.13
2017-10-26T10:57:27.960Z,1017.15
2017-10-26T10:58:27.943Z,1017.09
2017-10-26T10:59:27.923Z,1017.06
2017-10-26T11:00:27.915Z,1017.03
2017-10-26T11:01:27.897Z,1017.09
2017-10-26T11:02:27.882Z,1017.07
2017-10-26T11:03:27.876Z,1017.01
2017-10-26T11:04:27.853Z,1016.98
2017-10-26T11:05:27.853Z,1017.02
2017-10-26T11:06:27.830Z,1017.02
2017-10-26T11:07:27.833Z,1017.01
2017-10-26T11:08:27.798Z,1017.03
2017-10-26T11:09:27.789Z,1016.99
2017-10-26T11:10:27.775Z,1016.98
2017-10-26T11:11:27.764Z,1016.94
2017-10-26T11:12:27.754Z,1016.92
2017-10-26T11:13:27.731Z,1016.97
2017-10-26T11:14:27.719Z,1016.95
2017-10-26T11:15:27.706Z,1016.97
2017-10-26T11:16:27.689Z,1016.95
2017-10-26T11:17:27.674Z,1016.91
2017-10-26T11:18:27.664Z,1016.89
2017-10-26T11:19:27.642Z,1016.86
2017-10-26T11:20:27.637Z,1016.77
2017-10-26T11:21:27.614Z,1016.85
2017-10-26T11:22:27.604Z,1016.86
2017-10-26T11:23:27.588Z,1016.82
2017-10-26T11:24:27.574Z,1016.8
2017-10-26T11:25:27.567Z,1016.81
2017-10-26T11:26:27.543Z,1016.77
2017-10-26T11:27:27.534Z,1016.71
2017-10-26T11:28:27.509Z,1016.74
2017-10-26T11:29:27.494Z,1016.71
2017-10-26T11:30:27.484Z,1016.66
2017-10-26T11:31:27.474Z,1016.58
2017-10-26T11:32:27.451Z,1016.63
2017-10-26T11:33:27.433Z,1016.66
2017-10-26T11:34:27.422Z,1016.63
2017-10-26T11:35:27.406Z,1016.67
2017-10-26T11:36:27.394Z,1016.73
2017-10-26T11:37:27.376Z,1016.68
2017-10-26T11:38:27.359Z,1016.68
2017-10-26T11:39:27.344Z,1016.67
2017-10-26T11:40:27.337Z,1016.69
2017-10-26T11:41:27.312Z,1016.66
2017-10-26T11:42:27.298Z,1016.67
2017-10-26T11:43:27.285Z,1016.65
2017-10-26T11:44:27.274Z,1016.67
2017-10-26T11:45:27.257Z,1016.72
2017-10-26T11:46:27.254Z,1016.7
2017-10-26T11:47:27.220Z,1016.68
2017-10-26T11:48:27.203Z,1016.68
2017-10-26T11:49:27.196Z,1016.73
2017-10-26T11:50:27.173Z,1016.68
2017-10-26T11:51:27.165Z,1016.71
2017-10-26T11:52:27.143Z,1016.74
2017-10-26T11:53:27.128Z,1016.76
2017-10-26T11:54:27.115Z,1016.74
2017-10-26T11:55:27.102Z,1016.69
2017-10-26T11:56:27.084Z,1016.73
2017-10-26T11:57:27.069Z,1016.7
2017-10-26T11:58:27.056Z,1016.66
2017-10-26T11:59:27.038Z,1016.69
2017-10-26T12:00:27.026Z,1016.66
2017-10-26T12:01:27.005Z,1016.71
2017-10-26T12:02:26.998Z,1016.67
2017-10-26T12:03:26.973Z,1016.63
2017-10-26T12:04:26.963Z,1016.59
2017-10-26T12:05:26.943Z,1016.58
2017-10-26T12:06:26.934Z,1016.57
2017-10-26T12:07:26.913Z,1016.6
2017-10-26T12:08:26.904Z,1016.62